createdAt,value
2018-11-04T00:02:22.447Z,7.87
2018-11-04T00:04:50.954Z,6.57
2018-11-04T00:07:19.467Z,7.23
2018-11-04T00:09:47.991Z,7.10
2018-11-04T00:12:16.491Z,6.20
2018-11-04T00:14:45.015Z,6.10
2018-11-04T00:17:13.577Z,8.30
2018-11-04T00:19:42.069Z,9.00
2018-11-04T00:22:10.562Z,5.70
2018-11-04T00:24:39.078Z,5.60
2018-11-04T00:27:07.638Z,6.10
2018-11-04T00:29:36.170Z,7.40
2018-11-04T00:32:04.798Z,8.40
2018-11-04T00:34:33.343Z,7.00
2018-11-04T00:37:01.824Z,6.57
2018-11-04T00:39:30.344Z,10.30
2018-11-04T00:41:59.196Z,9.67
2018-11-04T00:44:27.702Z,7.70
2018-11-04T00:46:56.239Z,6.60
2018-11-04T00:49:24.751Z,9.10
2018-11-04T00:51:53.262Z,8.17
2018-11-04T00:54:21.794Z,5.93
2018-11-04T00:56:50.306Z,8.53
2018-11-04T00:59:18.791Z,5.40
2018-11-04T01:01:48.177Z,5.63
2018-11-04T01:04:17.193Z,9.97
2018-11-04T01:06:45.890Z,5.43
2018-11-04T01:09:15.459Z,5.27
2018-11-04T01:11:43.905Z,4.97
2018-11-04T01:14:12.398Z,6.10
2018-11-04T01:16:40.933Z,4.13
2018-11-04T01:19:09.512Z,4.87
2018-11-04T01:21:38.025Z,3.57
2018-11-04T01:24:06.534Z,4.20
2018-11-04T01:26:35.031Z,4.83
2018-11-04T01:29:03.567Z,4.40
2018-11-04T01:31:32.091Z,7.10
2018-11-04T01:34:01.679Z,21.47
2018-11-04T01:36:30.174Z,39.93
2018-11-04T01:38:59.181Z,23.40
2018-11-04T01:41:27.788Z,17.70
2018-11-04T01:43:56.304Z,8.73
2018-11-04T01:46:24.783Z,6.00
2018-11-04T01:48:54.202Z,8.10
2018-11-04T01:51:22.822Z,6.67
2018-11-04T01:53:51.315Z,9.03
2018-11-04T01:56:19.813Z,4.50
2018-11-04T01:58:48.323Z,4.60
2018-11-04T02:01:16.819Z,3.97
2018-11-04T02:03:45.321Z,12.63
2018-11-04T02:06:13.819Z,5.57
2018-11-04T02:08:42.326Z,5.77
2018-11-04T02:11:10.826Z,4.13
2018-11-04T02:13:39.320Z,4.80
2018-11-04T02:16:07.864Z,3.97
2018-11-04T02:18:36.391Z,5.77
2018-11-04T02:21:05.454Z,5.33
2018-11-04T02:23:33.954Z,4.67
2018-11-04T02:26:02.486Z,4.17
2018-11-04T02:28:30.996Z,4.17
2018-11-04T02:30:59.495Z,5.13
2018-11-04T02:33:28.126Z,4.60
2018-11-04T02:35:56.659Z,4.60
2018-11-04T02:38:25.167Z,5.70
2018-11-04T02:40:53.698Z,4.63
2018-11-04T02:43:22.212Z,4.67
2018-11-04T02:45:50.686Z,5.93
2018-11-04T02:48:19.197Z,6.53
2018-11-04T02:50:47.725Z,6.50
2018-11-04T02:53:16.222Z,6.57
2018-11-04T02:55:44.735Z,6.43
2018-11-04T02:58:13.242Z,5.10
2018-11-04T03:00:41.800Z,4.23
2018-11-04T03:03:10.338Z,4.60
2018-11-04T03:05:38.838Z,4.67
2018-11-04T03:08:07.346Z,9.67
2018-11-04T03:10:35.854Z,4.97
2018-11-04T03:13:04.650Z,4.37
2018-11-04T03:15:33.147Z,4.83
2018-11-04T03:18:01.779Z,7.70
2018-11-04T03:20:30.307Z,4.77
2018-11-04T03:22:58.819Z,5.90
2018-11-04T03:25:27.330Z,4.83
2018-11-04T03:27:55.866Z,6.20
2018-11-04T03:30:24.354Z,5.40
2018-11-04T03:32:52.867Z,6.77
2018-11-04T03:35:21.375Z,6.67
2018-11-04T03:37:49.899Z,5.47
2018-11-04T03:40:18.421Z,5.93
2018-11-04T03:42:47.045Z,5.57
2018-11-04T03:45:15.543Z,5.63
2018-11-04T03:47:44.326Z,7.80
2018-11-04T03:50:13.271Z,6.93
2018-11-04T03:52:42.430Z,6.73
2018-11-04T03:55:10.932Z,7.37
2018-11-04T03:57:39.451Z,8.80
2018-11-04T04:00:11.099Z,8.17
2018-11-04T04:02:39.962Z,6.87
2018-11-04T04:05:09.378Z,6.37
2018-11-04T04:07:37.926Z,7.00
2018-11-04T04:10:07.278Z,6.87
2018-11-04T04:12:35.948Z,5.23
2018-11-04T04:15:05.279Z,5.30
2018-11-04T04:17:33.783Z,4.93
2018-11-04T04:20:02.355Z,6.10
2018-11-04T04:22:30.869Z,6.70
2018-11-04T04:24:59.378Z,9.13
2018-11-04T04:27:28.171Z,7.57
2018-11-04T04:29:56.710Z,4.80
2018-11-04T04:32:25.250Z,7.23
2018-11-04T04:34:53.754Z,6.40
2018-11-04T04:37:22.241Z,6.00
2018-11-04T04:39:50.750Z,5.00
2018-11-04T04:42:19.239Z,5.57
2018-11-04T04:44:48.440Z,5.87
2018-11-04T04:47:16.961Z,5.70
2018-11-04T04:49:45.531Z,5.30
2018-11-04T04:52:14.004Z,6.40
2018-11-04T04:54:42.525Z,6.60
2018-11-04T04:57:11.014Z,6.03
2018-11-04T04:59:39.510Z,5.60
2018-11-04T05:02:08.860Z,4.83
2018-11-04T05:04:37.378Z,7.30
2018-11-04T05:07:05.953Z,5.33
2018-11-04T05:09:34.467Z,4.10
2018-11-04T05:12:03.019Z,4.43
2018-11-04T05:14:31.535Z,6.30
2018-11-04T05:17:00.028Z,5.77
2018-11-04T05:19:28.533Z,4.10
2018-11-04T05:21:57.042Z,4.53
2018-11-04T05:24:25.570Z,8.23
2018-11-04T05:26:54.063Z,6.07
2018-11-04T05:29:22.535Z,6.73
2018-11-04T05:31:51.058Z,6.63
2018-11-04T05:34:24.910Z,8.83
2018-11-04T05:36:53.694Z,8.07
2018-11-04T05:39:22.214Z,8.13
2018-11-04T05:41:50.734Z,8.00
2018-11-04T05:44:19.206Z,5.77
2018-11-04T05:46:47.718Z,7.13
2018-11-04T05:49:16.227Z,6.07
2018-11-04T05:51:44.734Z,9.77
2018-11-04T05:54:13.227Z,10.33
2018-11-04T05:56:41.718Z,8.37
2018-11-04T05:59:10.215Z,9.03
2018-11-04T06:01:38.734Z,6.80
2018-11-04T06:04:07.359Z,7.77
2018-11-04T06:06:35.850Z,6.67
2018-11-04T06:09:06.975Z,7.23
2018-11-04T06:11:35.950Z,13.40
2018-11-04T06:14:07.067Z,7.97
2018-11-04T06:16:35.548Z,8.27
2018-11-04T06:19:04.078Z,6.00
2018-11-04T06:21:32.566Z,7.53
2018-11-04T06:24:02.318Z,6.43
2018-11-04T06:26:30.806Z,12.07
2018-11-04T06:29:00.217Z,7.90
2018-11-04T06:31:28.710Z,7.50
2018-11-04T06:33:57.272Z,8.93
2018-11-04T06:36:25.867Z,14.87
2018-11-04T06:38:54.362Z,8.80
2018-11-04T06:41:23.032Z,11.57
2018-11-04T06:49:36.581Z,8.87
2018-11-04T06:52:10.866Z,11.20
2018-11-04T06:54:39.375Z,9.73
2018-11-04T06:57:07.919Z,13.07
2018-11-04T06:59:36.859Z,9.17
2018-11-04T07:02:06.277Z,9.80
2018-11-04T07:04:34.755Z,12.13
2018-11-04T07:07:03.333Z,12.03
2018-11-04T07:09:31.832Z,14.97
2018-11-04T07:12:00.349Z,13.30
2018-11-04T07:14:28.839Z,12.90
2018-11-04T07:16:57.347Z,14.10
2018-11-04T07:19:25.844Z,12.60
2018-11-04T07:21:54.327Z,12.33
2018-11-04T07:24:22.827Z,17.23
2018-11-04T07:26:51.447Z,16.93
2018-11-04T07:29:19.936Z,20.70
2018-11-04T07:31:48.542Z,12.83
2018-11-04T07:34:17.015Z,12.60
2018-11-04T07:36:45.517Z,13.63
2018-11-04T07:39:14.323Z,12.43
2018-11-04T07:41:42.815Z,16.33
2018-11-04T07:44:11.389Z,12.07
2018-11-04T07:46:39.870Z,15.50
2018-11-04T07:49:11.305Z,13.20
2018-11-04T07:51:39.983Z,10.73
2018-11-04T07:54:08.327Z,11.80
2018-11-04T07:56:36.810Z,10.97
2018-11-04T07:59:05.542Z,11.67
2018-11-04T08:01:34.061Z,16.70
2018-11-04T08:04:02.815Z,12.47
2018-11-04T08:06:31.238Z,9.97
2018-11-04T08:09:01.251Z,15.00
2018-11-04T08:11:29.770Z,13.60
2018-11-04T08:13:58.543Z,12.30
2018-11-04T08:16:27.043Z,17.47
2018-11-04T08:18:55.539Z,22.40
2018-11-04T08:21:24.102Z,18.47
2018-11-04T08:23:52.563Z,18.13
2018-11-04T08:26:21.051Z,17.40
2018-11-04T08:28:49.559Z,18.67
2018-11-04T08:31:18.103Z,20.10
2018-11-04T08:33:46.599Z,22.33
2018-11-04T08:36:15.098Z,28.87
2018-11-04T08:38:43.575Z,28.20
2018-11-04T08:41:12.125Z,31.83
2018-11-04T08:43:40.631Z,29.47
2018-11-04T08:46:09.139Z,29.83
2018-11-04T08:48:37.678Z,41.37
2018-11-04T08:51:06.473Z,43.87
2018-11-04T08:53:35.002Z,41.50
2018-11-04T08:56:03.655Z,42.50
2018-11-04T08:58:32.549Z,54.40
2018-11-04T09:01:01.049Z,56.07
2018-11-04T09:03:29.598Z,60.27
2018-11-04T09:05:58.098Z,50.83
2018-11-04T09:08:26.603Z,55.40
2018-11-04T09:10:55.118Z,55.53
2018-11-04T09:13:23.627Z,58.10
2018-11-04T09:15:52.131Z,55.13
2018-11-04T09:18:20.650Z,61.23
2018-11-04T09:20:49.694Z,64.03
2018-11-04T09:23:18.213Z,61.53
2018-11-04T09:25:46.763Z,63.10
2018-11-04T09:28:15.278Z,58.90
2018-11-04T09:30:43.803Z,58.10
2018-11-04T09:33:12.295Z,52.33
2018-11-04T09:35:40.937Z,51.43
2018-11-04T09:38:09.390Z,54.70
2018-11-04T09:40:37.931Z,47.17
2018-11-04T09:43:06.454Z,51.80
2018-11-04T09:45:34.966Z,59.57
2018-11-04T09:48:03.534Z,51.20
2018-11-04T09:50:32.038Z,52.80
2018-11-04T09:53:00.567Z,53.97
2018-11-04T09:55:29.062Z,42.10
2018-11-04T09:57:57.579Z,46.50
2018-11-04T10:00:26.102Z,52.23
2018-11-04T10:02:54.590Z,47.67
2018-11-04T10:05:23.411Z,47.20
2018-11-04T10:07:51.904Z,47.00
2018-11-04T10:10:20.423Z,45.67
2018-11-04T10:12:48.942Z,48.70
2018-11-04T10:15:17.438Z,44.50
2018-11-04T10:17:45.978Z,42.70
2018-11-04T10:20:14.751Z,42.80
2018-11-04T10:22:43.221Z,36.13
2018-11-04T10:25:12.810Z,46.40
2018-11-04T10:27:42.150Z,40.47
2018-11-04T10:30:13.284Z,46.77
2018-11-04T10:32:41.766Z,43.83
2018-11-04T10:35:10.779Z,44.37
2018-11-04T10:37:39.871Z,44.43
2018-11-04T10:40:09.498Z,48.10
2018-11-04T10:42:38.029Z,41.93
2018-11-04T10:45:07.547Z,55.00
2018-11-04T10:47:36.046Z,53.47
2018-11-04T10:50:05.194Z,44.87
2018-11-04T10:52:33.645Z,49.07
2018-11-04T10:55:02.242Z,53.30
2018-11-04T10:57:31.223Z,54.30
2018-11-04T10:59:59.732Z,49.63
2018-11-04T11:02:29.063Z,44.97
2018-11-04T11:04:57.657Z,51.47
2018-11-04T11:07:26.154Z,51.13
2018-11-04T11:09:54.669Z,46.70
2018-11-04T11:12:23.170Z,40.90
2018-11-04T11:14:51.681Z,47.63
2018-11-04T11:17:20.190Z,52.30
2018-11-04T11:19:48.690Z,55.20
2018-11-04T11:22:17.178Z,47.70
2018-11-04T11:24:46.267Z,52.03
2018-11-04T11:27:14.794Z,53.67
2018-11-04T11:29:43.314Z,43.33
2018-11-04T11:32:11.968Z,47.33
2018-11-04T11:34:40.506Z,50.57
2018-11-04T11:37:09.110Z,51.43
2018-11-04T11:39:37.635Z,57.73
2018-11-04T11:42:06.143Z,48.23
2018-11-04T11:44:34.651Z,42.70
2018-11-04T11:47:03.787Z,61.43
2018-11-04T11:49:32.332Z,56.20
2018-11-04T11:52:00.836Z,50.00
2018-11-04T11:54:29.374Z,48.03
2018-11-04T11:56:58.255Z,48.57
2018-11-04T11:59:27.503Z,55.33
2018-11-04T12:01:55.947Z,53.53
2018-11-04T12:04:24.457Z,55.17
2018-11-04T12:06:52.981Z,50.50
2018-11-04T12:09:21.482Z,51.97
2018-11-04T12:11:50.313Z,54.97
2018-11-04T12:14:18.813Z,70.23
2018-11-04T12:16:47.327Z,60.70
2018-11-04T12:22:08.927Z,56.73
2018-11-04T12:24:37.475Z,56.23
2018-11-04T12:27:06.195Z,54.73
2018-11-04T12:29:34.874Z,58.83
2018-11-04T12:32:03.415Z,57.33
2018-11-04T12:34:32.053Z,57.07
2018-11-04T12:37:00.574Z,56.80
2018-11-04T12:39:29.091Z,62.03
2018-11-04T12:41:57.607Z,62.73
2018-11-04T12:44:26.142Z,53.53
2018-11-04T12:46:54.659Z,54.37
2018-11-04T12:49:25.466Z,61.57
2018-11-04T12:51:53.954Z,50.70
2018-11-04T12:54:22.466Z,57.13
2018-11-04T12:56:50.974Z,63.50
2018-11-04T12:59:19.455Z,65.80
2018-11-04T13:01:48.001Z,69.03
2018-11-04T13:04:16.507Z,65.30
2018-11-04T13:06:45.055Z,68.57
2018-11-04T13:09:13.570Z,62.00
2018-11-04T13:14:34.521Z,62.37
2018-11-04T13:17:03.211Z,54.50
2018-11-04T13:19:31.698Z,63.33
2018-11-04T13:22:00.218Z,58.50
2018-11-04T13:24:28.718Z,53.90
2018-11-04T13:26:57.390Z,63.20
2018-11-04T13:29:25.795Z,60.53
2018-11-04T13:31:54.298Z,53.77
2018-11-04T13:34:22.807Z,65.50
2018-11-04T13:36:51.454Z,58.63
2018-11-04T13:39:19.994Z,63.93
2018-11-04T13:41:48.547Z,62.57
2018-11-04T13:44:17.079Z,61.47
2018-11-04T13:46:45.596Z,62.73
2018-11-04T13:49:14.200Z,61.63
2018-11-04T13:51:42.674Z,62.73
2018-11-04T13:54:11.171Z,61.60
2018-11-04T13:56:39.684Z,56.60
2018-11-04T13:59:08.187Z,63.77
2018-11-04T14:01:36.718Z,64.20
2018-11-04T14:04:06.027Z,61.43
2018-11-04T14:06:34.530Z,68.07
2018-11-04T14:09:05.460Z,65.80
2018-11-04T14:11:33.988Z,62.70
2018-11-04T14:14:03.183Z,59.83
2018-11-04T14:16:32.163Z,64.50
2018-11-04T14:19:02.039Z,63.07
2018-11-04T14:21:31.094Z,67.50
2018-11-04T14:24:02.346Z,66.00
2018-11-04T14:26:30.858Z,65.37
2018-11-04T14:29:00.001Z,62.23
2018-11-04T14:31:28.505Z,66.97
2018-11-04T14:33:57.011Z,62.23
2018-11-04T14:36:25.548Z,59.87
2018-11-04T14:38:54.034Z,67.17
2018-11-04T14:41:22.566Z,59.90
2018-11-04T14:43:51.062Z,64.00
2018-11-04T14:46:19.591Z,65.60
2018-11-04T14:48:48.146Z,70.60
2018-11-04T14:51:16.643Z,65.30
2018-11-04T14:53:45.225Z,71.33
2018-11-04T14:56:13.719Z,59.27
2018-11-04T14:58:50.214Z,60.93
2018-11-04T15:01:18.762Z,52.27
2018-11-04T15:03:47.298Z,57.80
2018-11-04T15:06:15.814Z,60.87
2018-11-04T15:08:44.334Z,59.10
2018-11-04T15:11:12.931Z,60.70
2018-11-04T15:13:41.962Z,43.60
2018-11-04T15:16:10.462Z,56.63
2018-11-04T15:18:39.012Z,51.27
2018-11-04T15:21:07.527Z,50.33
2018-11-04T15:23:36.038Z,67.60
2018-11-04T15:26:04.575Z,64.23
2018-11-04T15:28:33.098Z,60.50
2018-11-04T15:31:01.656Z,60.63
2018-11-04T15:33:30.203Z,59.63
2018-11-04T15:36:11.134Z,58.53
2018-11-04T15:38:39.684Z,53.60
2018-11-04T15:41:08.215Z,52.27
2018-11-04T15:43:36.757Z,56.77
2018-11-04T15:46:05.338Z,51.87
2018-11-04T15:48:33.885Z,49.07
2018-11-04T15:51:02.447Z,47.87
2018-11-04T15:53:30.971Z,53.70
2018-11-04T15:55:59.494Z,53.63
2018-11-04T15:58:27.991Z,47.60
2018-11-04T16:00:56.531Z,50.80
2018-11-04T16:03:31.582Z,47.00
2018-11-04T16:06:00.151Z,49.70
2018-11-04T16:08:28.675Z,44.27
2018-11-04T16:10:57.207Z,44.23
2018-11-04T16:13:25.757Z,44.00
2018-11-04T16:15:54.282Z,52.27
2018-11-04T16:18:23.037Z,43.07
2018-11-04T16:20:51.445Z,42.47
2018-11-04T16:23:19.939Z,44.50
2018-11-04T16:25:48.459Z,46.23
2018-11-04T16:28:16.964Z,40.13
2018-11-04T16:30:45.478Z,45.47
2018-11-04T16:33:14.026Z,40.90
2018-11-04T16:35:42.507Z,42.60
2018-11-04T16:38:11.102Z,38.90
2018-11-04T16:40:39.633Z,50.10
2018-11-04T16:43:08.180Z,43.90
2018-11-04T16:45:36.835Z,47.97
2018-11-04T16:48:05.610Z,48.70
2018-11-04T16:50:34.145Z,48.60
2018-11-04T16:53:02.673Z,35.50
2018-11-04T16:55:31.351Z,39.60
2018-11-04T16:57:59.847Z,48.40
2018-11-04T17:00:28.366Z,36.13
2018-11-04T17:02:57.692Z,48.90
2018-11-04T17:05:26.363Z,54.87
2018-11-04T17:07:54.750Z,55.63
2018-11-04T17:10:23.403Z,40.87
2018-11-04T17:12:51.914Z,38.03
2018-11-04T17:15:20.410Z,71.20
2018-11-04T17:17:48.970Z,49.83
2018-11-04T17:20:18.526Z,41.97
2018-11-04T17:22:47.471Z,34.90
2018-11-04T17:25:15.954Z,37.10
2018-11-04T17:27:44.589Z,35.33
2018-11-04T17:30:15.427Z,37.73
2018-11-04T17:32:44.431Z,39.97
2018-11-04T17:38:05.243Z,59.60
2018-11-04T17:40:33.751Z,51.90
2018-11-04T17:43:02.444Z,79.37
2018-11-04T17:45:31.006Z,51.73
2018-11-04T17:47:59.517Z,59.17
2018-11-04T17:50:28.034Z,40.03
2018-11-04T17:52:56.531Z,39.07
2018-11-04T17:55:34.511Z,41.87
2018-11-04T17:58:03.042Z,48.87
2018-11-04T18:00:31.558Z,49.73
2018-11-04T18:03:00.119Z,56.80
2018-11-04T18:05:28.730Z,46.00
2018-11-04T18:07:57.647Z,45.80
2018-11-04T18:10:26.480Z,48.60
2018-11-04T18:12:54.994Z,47.93
2018-11-04T18:15:23.518Z,58.23
2018-11-04T18:17:52.047Z,63.93
2018-11-04T18:20:20.565Z,79.90
2018-11-04T18:22:49.068Z,194.53
2018-11-04T18:25:17.891Z,174.43
2018-11-04T18:27:46.649Z,153.97
2018-11-04T18:30:16.253Z,73.67
2018-11-04T18:32:45.484Z,72.93
2018-11-04T18:35:17.058Z,64.93
2018-11-04T18:37:45.565Z,58.20
2018-11-04T18:40:15.638Z,56.90
2018-11-04T18:42:44.951Z,43.70
2018-11-04T18:45:14.866Z,40.93
2018-11-04T18:47:43.758Z,36.03
2018-11-04T18:50:13.446Z,47.00
2018-11-04T18:52:41.984Z,39.07
2018-11-04T18:55:11.702Z,54.13
2018-11-04T18:57:40.866Z,40.33
2018-11-04T19:00:11.938Z,35.70
2018-11-04T19:02:40.471Z,37.03
2018-11-04T19:05:09.742Z,39.80
2018-11-04T19:07:38.664Z,31.93
2018-11-04T19:10:09.224Z,30.03
2018-11-04T19:12:37.849Z,30.40
2018-11-04T19:15:06.857Z,29.40
2018-11-04T19:17:35.713Z,33.83
2018-11-04T19:20:04.600Z,34.17
2018-11-04T19:22:33.195Z,39.10
2018-11-04T19:25:02.141Z,37.80
2018-11-04T19:27:30.742Z,41.77
2018-11-04T19:29:59.268Z,45.70
2018-11-04T19:32:27.759Z,54.53
2018-11-04T19:34:56.834Z,48.17
2018-11-04T19:37:25.683Z,46.63
2018-11-04T19:39:54.082Z,40.40
2018-11-04T19:42:23.012Z,43.70
2018-11-04T19:44:52.043Z,56.43
2018-11-04T19:47:20.557Z,80.67
2018-11-04T19:49:49.219Z,78.27
2018-11-04T19:52:17.718Z,82.47
2018-11-04T19:54:46.370Z,89.73
2018-11-04T19:57:15.079Z,89.33
2018-11-04T19:59:43.586Z,65.83
2018-11-04T20:02:12.274Z,56.97
2018-11-04T20:04:41.206Z,59.50
2018-11-04T20:07:09.726Z,59.87
2018-11-04T20:09:38.207Z,59.03
2018-11-04T20:12:10.855Z,47.20
2018-11-04T20:14:39.341Z,40.87
2018-11-04T20:17:07.862Z,36.67
2018-11-04T20:19:41.697Z,39.93
2018-11-04T20:22:10.012Z,38.40
2018-11-04T20:24:43.666Z,41.57
2018-11-04T20:27:12.169Z,40.30
2018-11-04T20:29:40.690Z,34.40
2018-11-04T20:32:14.655Z,34.43
2018-11-04T20:34:43.202Z,38.90
2018-11-04T20:37:11.706Z,36.40
2018-11-04T20:39:45.420Z,26.90
2018-11-04T20:42:13.948Z,33.00
2018-11-04T20:44:46.340Z,33.13
2018-11-04T20:47:15.481Z,40.20
2018-11-04T20:49:49.317Z,41.63
2018-11-04T20:52:18.410Z,43.17
2018-11-04T20:54:47.311Z,41.90
2018-11-04T20:57:21.007Z,33.13
2018-11-04T20:59:49.503Z,35.60
2018-11-04T21:02:19.059Z,32.93
2018-11-04T21:04:47.452Z,34.80
2018-11-04T21:07:15.978Z,39.87
2018-11-04T21:09:44.558Z,38.23
2018-11-04T21:12:13.003Z,34.97
2018-11-04T21:14:41.510Z,40.23
2018-11-04T21:17:10.007Z,33.47
2018-11-04T21:19:38.674Z,42.73
2018-11-04T21:22:09.879Z,42.27
2018-11-04T21:24:38.738Z,37.73
2018-11-04T21:27:07.691Z,40.03
2018-11-04T21:29:37.333Z,35.33
2018-11-04T21:32:06.158Z,40.47
2018-11-04T21:34:34.722Z,34.17
2018-11-04T21:37:04.977Z,36.77
2018-11-04T21:39:33.501Z,34.33
2018-11-04T21:42:02.260Z,34.87
2018-11-04T21:44:30.936Z,44.57
2018-11-04T21:46:59.368Z,37.67
2018-11-04T21:49:27.856Z,41.07
2018-11-04T21:51:56.352Z,40.43
2018-11-04T21:54:24.929Z,36.87
2018-11-04T21:56:53.459Z,34.00
2018-11-04T21:59:21.955Z,35.13
2018-11-04T22:01:50.459Z,37.27
2018-11-04T22:04:19.055Z,64.07
2018-11-04T22:06:48.103Z,84.83
2018-11-04T22:09:16.648Z,67.17
2018-11-04T22:11:45.150Z,53.63
2018-11-04T22:14:13.762Z,49.70
2018-11-04T22:16:42.259Z,45.80
2018-11-04T22:19:10.767Z,39.80
2018-11-04T22:21:39.266Z,32.77
2018-11-04T22:24:07.771Z,29.83
2018-11-04T22:26:36.332Z,27.43
2018-11-04T22:29:05.045Z,28.13
2018-11-04T22:31:33.551Z,28.47
2018-11-04T22:34:02.703Z,32.77
2018-11-04T22:36:31.255Z,26.17
2018-11-04T22:39:00.359Z,26.40
2018-11-04T22:41:28.851Z,30.47
2018-11-04T22:43:57.371Z,27.63
2018-11-04T22:46:25.875Z,28.87
2018-11-04T22:48:54.378Z,41.00
2018-11-04T22:51:22.899Z,35.17
2018-11-04T22:53:51.392Z,40.23
2018-11-04T22:56:20.013Z,30.80
2018-11-04T22:58:48.885Z,29.63
2018-11-04T23:01:17.423Z,29.33
2018-11-04T23:03:45.954Z,30.97
2018-11-04T23:06:14.461Z,35.10
2018-11-04T23:08:42.968Z,36.97
2018-11-04T23:11:11.479Z,36.80
2018-11-04T23:13:39.987Z,36.07
2018-11-04T23:16:08.490Z,37.70
2018-11-04T23:18:37.042Z,31.23
2018-11-04T23:21:05.876Z,29.10
2018-11-04T23:23:34.382Z,35.77
2018-11-04T23:26:02.875Z,24.80
2018-11-04T23:28:31.410Z,30.27
2018-11-04T23:30:59.922Z,26.13
2018-11-04T23:33:28.432Z,34.50
2018-11-04T23:35:56.950Z,28.23
2018-11-04T23:38:25.454Z,27.63
2018-11-04T23:40:53.954Z,29.83
2018-11-04T23:43:22.838Z,28.10
2018-11-04T23:45:51.347Z,31.93
2018-11-04T23:48:19.966Z,26.83
2018-11-04T23:50:48.515Z,24.97
2018-11-04T23:53:17.025Z,29.07
2018-11-04T23:55:45.543Z,25.77
2018-11-04T23:58:14.106Z,33.93
